Time;durP1;ratioP1;P1;durP2;ratioP2;P2;SDS_P1;SDS_P2;PMS_P1;PMS_P2;Temp;Humidity;BMP_temperature;BMP_pressure;BME280_temperature;BME280_humidity;BME280_pressure;Samples;Min_cycle;Max_cycle;Signal;HPM_P1;HPM_P2
2023/11/01 00:00:45;;;;;;;;;;;;;;;11.76;77.59;99264.56;1087436;54;1193;-80
2023/11/01 00:01:47;;;;;;;;;;;;;;;11.78;77.37;99275.94;1086984;54;1169;-81
2023/11/01 00:02:51;;;;;;;;;;;;;;;11.79;77.33;99282.97;1087450;47;1180;-81
2023/11/01 00:03:52;;;;;;;;;;;;;;;11.83;77.07;99281.59;1087236;54;1107;-80
2023/11/01 00:04:56;;;;;;;;;;;;;;;11.88;76.96;99273.91;1087227;54;1007;-81
2023/11/01 00:05:59;;;;;;;;;;;;;;;11.86;76.88;99282.09;1086938;47;1000;-82
2023/11/01 00:07:02;;;;;;;;;;;;;;;11.84;77.05;99276.09;1087155;54;996;-79
2023/11/01 00:08:03;;;;;;;;;;;;;;;11.89;77.08;99269.38;1087072;54;1408;-80
2023/11/01 00:09:06;;;;;;;;;;;;;;;11.88;76.70;99265.88;1087787;54;1083;-81
2023/11/01 00:10:07;;;;;;;;;;;;;;;11.89;76.79;99270.22;1087154;54;1892;-81
2023/11/01 00:11:19;;;;;;;;;;;;;;;11.88;76.27;99268.56;1087021;47;1134;-80
2023/11/01 00:14:42;;;;;;;;;;;;;;;11.91;76.54;99264.69;1088675;54;824;-80
2023/11/01 00:15:43;;;;;;;;;;;;;;;11.96;76.24;99265.00;1088580;47;952;-79
2023/11/01 00:16:46;;;;;;;;;;;;;;;11.93;76.07;99266.19;1088691;47;950;-80
2023/11/01 00:17:46;;;;;;;;;;;;;;;11.99;76.04;99262.00;1088524;54;1280;-79
2023/11/01 00:22:13;;;;;;;;;;;;;;;11.97;76.02;99262.19;1088843;54;902;-81
2023/11/01 00:23:13;;;;;;;;;;;;;;;11.98;75.51;99260.34;1088538;47;948;-81
2023/11/01 00:24:16;;;;;;;;;;;;;;;11.98;75.42;99263.88;1088355;47;922;-81
2023/11/01 00:25:17;;;;;;;;;;;;;;;12.01;75.56;99257.31;1088363;47;892;-80
2023/11/01 00:26:20;;;;;;;;;;;;;;;12.00;75.31;99261.81;1088771;54;973;-83
2023/11/01 00:27:21;;;;;;;;;;;;;;;12.02;75.23;99259.00;1088827;54;1261;-81
2023/11/01 00:28:24;;;;;;;;;;;;;;;12.05;75.28;99253.25;1088484;47;935;-81
2023/11/01 00:29:25;;;;;;;;;;;;;;;12.01;75.13;99258.13;1088603;46;984;-80
2023/11/01 00:30:31;;;;;;;;;;;;;;;12.04;75.23;99256.13;1088311;47;1876;-79
2023/11/01 00:31:33;;;;;;;;;;;;;;;12.02;74.66;99254.44;1088721;54;990;-80
2023/11/01 00:32:39;;;;;;;;;;;;;;;11.95;75.28;99258.00;1088328;54;1055;-80
2023/11/01 00:33:40;;;;;;;;;;;;;;;11.98;75.05;99253.16;1088463;46;874;-80
2023/11/01 00:37:00;;;;;;;;;;;;;;;12.01;74.96;99247.44;1088904;54;914;-84
2023/11/01 00:38:02;;;;;;;;;;;;;;;11.98;74.84;99249.63;1089110;54;1334;-80
2023/11/01 00:39:07;;;;;;;;;;;;;;;11.96;75.00;99252.44;1088599;54;974;-80
2023/11/01 00:40:08;;;;;;;;;;;;;;;11.96;75.04;99248.91;1088764;54;895;-80
2023/11/01 00:41:17;;;;;;;;;;;;;;;11.95;74.75;99242.75;1088793;54;1058;-81
2023/11/01 00:42:23;;;;;;;;;;;;;;;11.99;75.04;99241.44;1088204;47;1103;-81
2023/11/01 00:43:28;;;;;;;;;;;;;;;12.00;75.07;99245.75;1088462;47;1426;-80
2023/11/01 00:44:33;;;;;;;;;;;;;;;11.98;74.71;99247.78;1088799;54;1014;-80
2023/11/01 00:45:39;;;;;;;;;;;;;;;11.99;74.49;99244.09;1088414;46;971;-82
2023/11/01 00:46:40;;;;;;;;;;;;;;;11.97;74.91;99246.13;1088484;54;961;-80
2023/11/01 00:47:45;;;;;;;;;;;;;;;12.02;74.75;99242.91;1088579;54;1404;-80
2023/11/01 00:48:45;;;;;;;;;;;;;;;12.00;74.64;99253.78;1088175;47;1085;-82
2023/11/01 00:49:48;;;;;;;;;;;;;;;11.96;74.81;99249.78;1088042;54;1106;-82
2023/11/01 00:50:49;;;;;;;;;;;;;;;11.94;74.86;99245.59;1087308;47;1849;-81
2023/11/01 00:51:55;;;;;;;;;;;;;;;11.96;74.78;99252.44;1086985;46;1178;-81
2023/11/01 00:52:55;;;;;;;;;;;;;;;11.94;75.00;99249.09;1087930;54;1024;-80
2023/11/01 00:54:01;;;;;;;;;;;;;;;11.98;75.03;99241.59;1087786;54;1404;-82
2023/11/01 00:55:02;;;;;;;;;;;;;;;11.91;74.70;99241.41;1087418;47;1058;-81
2023/11/01 00:56:10;;;;;;;;;;;;;;;11.93;75.05;99252.78;1088278;47;945;-81
2023/11/01 00:57:12;;;;;;;;;;;;;;;11.97;74.95;99254.16;1087692;47;1446;-82
2023/11/01 00:58:16;;;;;;;;;;;;;;;12.01;74.78;99250.09;1088293;54;1126;-81
2023/11/01 00:59:17;;;;;;;;;;;;;;;12.01;74.63;99250.09;1087453;54;1177;-81
2023/11/01 01:00:18;;;;;;;;;;;;;;;12.00;74.93;99245.75;1087557;48;1433;-82
2023/11/01 01:01:25;;;;;;;;;;;;;;;11.96;74.87;99256.94;1087545;47;1019;-81
2023/11/01 01:02:26;;;;;;;;;;;;;;;11.97;74.67;99246.13;1088199;54;1149;-81
2023/11/01 01:03:29;;;;;;;;;;;;;;;11.88;74.74;99252.47;1088185;54;1087;-80
2023/11/01 01:04:36;;;;;;;;;;;;;;;11.91;75.18;99259.31;1087924;47;1102;-82
2023/11/01 01:05:41;;;;;;;;;;;;;;;11.98;74.81;99258.50;1088276;47;991;-80
2023/11/01 01:06:42;;;;;;;;;;;;;;;12.01;74.45;99251.97;1088398;54;990;-80
2023/11/01 01:07:45;;;;;;;;;;;;;;;11.97;74.43;99254.16;1087897;54;1354;-80
2023/11/01 01:08:46;;;;;;;;;;;;;;;11.97;74.55;99251.47;1088361;47;1081;-81
2023/11/01 01:09:52;;;;;;;;;;;;;;;11.97;74.54;99253.28;1087400;54;1087;-80
2023/11/01 01:10:52;;;;;;;;;;;;;;;11.92;74.80;99252.97;1087268;54;1855;-80
2023/11/01 01:11:56;;;;;;;;;;;;;;;11.98;74.47;99250.47;1087635;47;1066;-81
2023/11/01 01:12:56;;;;;;;;;;;;;;;11.94;74.98;99254.47;1087983;47;1094;-81
2023/11/01 01:14:00;;;;;;;;;;;;;;;11.98;74.51;99254.97;1087953;54;1082;-80
2023/11/01 01:15:01;;;;;;;;;;;;;;;12.06;74.38;99252.25;1087639;46;1029;-81
2023/11/01 01:16:04;;;;;;;;;;;;;;;12.09;74.45;99253.78;1087930;54;897;-81
2023/11/01 01:17:07;;;;;;;;;;;;;;;12.12;74.28;99251.59;1088154;46;994;-82
2023/11/01 01:18:14;;;;;;;;;;;;;;;12.13;74.00;99260.44;1087869;47;1099;-81
2023/11/01 01:19:15;;;;;;;;;;;;;;;12.04;74.54;99250.78;1087550;46;963;-81
2023/11/01 01:20:20;;;;;;;;;;;;;;;12.13;74.39;99252.41;1088012;47;979;-80
2023/11/01 01:21:21;;;;;;;;;;;;;;;12.12;74.07;99256.09;1088004;47;1145;-79
2023/11/01 01:22:24;;;;;;;;;;;;;;;12.13;73.94;99247.03;1088107;54;1133;-79
2023/11/01 01:23:26;;;;;;;;;;;;;;;11.99;74.50;99244.09;1087674;54;1055;-80
2023/11/01 01:24:29;;;;;;;;;;;;;;;12.07;74.70;99240.53;1087440;54;1137;-79
2023/11/01 01:25:30;;;;;;;;;;;;;;;12.07;74.75;99239.72;1087643;54;1114;-81
2023/11/01 01:26:33;;;;;;;;;;;;;;;12.09;74.28;99235.03;1088141;54;1035;-82
2023/11/01 01:27:34;;;;;;;;;;;;;;;12.02;74.36;99233.03;1088279;54;1379;-81
2023/11/01 01:28:38;;;;;;;;;;;;;;;12.10;74.48;99229.50;1087914;47;1118;-81
2023/11/01 01:29:45;;;;;;;;;;;;;;;12.08;74.24;99228.81;1088163;47;966;-82
2023/11/01 01:30:50;;;;;;;;;;;;;;;12.07;74.38;99223.66;1087825;47;1857;-80
2023/11/01 01:31:53;;;;;;;;;;;;;;;12.11;74.16;99224.94;1088342;46;1090;-81
2023/11/01 01:33:07;;;;;;;;;;;;;;;12.04;74.53;99221.31;1088416;47;1490;-81
2023/11/01 01:34:08;;;;;;;;;;;;;;;12.08;74.19;99217.28;1088598;54;1089;-81
2023/11/01 01:35:12;;;;;;;;;;;;;;;12.08;74.13;99225.31;1088429;47;1310;-82
2023/11/01 01:36:13;;;;;;;;;;;;;;;12.08;74.26;99225.31;1088058;47;1066;-81
2023/11/01 01:37:16;;;;;;;;;;;;;;;12.11;74.38;99220.44;1088059;47;1193;-80
2023/11/01 01:38:17;;;;;;;;;;;;;;;12.17;73.87;99221.59;1088361;46;1094;-81
2023/11/01 01:39:21;;;;;;;;;;;;;;;12.20;73.97;99218.53;1088521;46;1039;-81
2023/11/01 01:40:22;;;;;;;;;;;;;;;12.08;74.20;99219.97;1088257;47;1078;-80
2023/11/01 01:41:25;;;;;;;;;;;;;;;12.11;74.05;99220.44;1088489;47;1027;-81
2023/11/01 01:42:27;;;;;;;;;;;;;;;12.12;74.11;99226.63;1088422;47;975;-82
2023/11/01 01:43:28;;;;;;;;;;;;;;;12.17;74.14;99219.72;1088364;46;907;-81
2023/11/01 01:44:32;;;;;;;;;;;;;;;12.13;73.95;99215.75;1088076;47;1118;-80
2023/11/01 01:45:33;;;;;;;;;;;;;;;12.12;73.82;99216.75;1088187;54;971;-80
2023/11/01 01:46:38;;;;;;;;;;;;;;;12.16;73.89;99211.88;1088277;47;963;-82
2023/11/01 01:47:38;;;;;;;;;;;;;;;12.21;73.81;99214.84;1088212;54;1336;-80
2023/11/01 01:48:45;;;;;;;;;;;;;;;12.21;74.10;99214.84;1088064;47;1102;-81
2023/11/01 01:49:45;;;;;;;;;;;;;;;12.21;73.77;99214.84;1088131;47;1027;-80
2023/11/01 01:50:51;;;;;;;;;;;;;;;12.21;73.65;99208.66;1088362;54;1848;-83
2023/11/01 01:51:52;;;;;;;;;;;;;;;12.22;73.88;99216.53;1088307;54;978;-82
2023/11/01 01:52:55;;;;;;;;;;;;;;;12.22;73.58;99202.31;1088189;47;950;-82
2023/11/01 01:53:57;;;;;;;;;;;;;;;12.27;73.47;99211.50;1088384;54;1071;-81
2023/11/01 01:55:03;;;;;;;;;;;;;;;12.30;73.37;99203.06;1088284;47;1091;-81
2023/11/01 01:56:07;;;;;;;;;;;;;;;12.30;73.60;99207.63;1088137;54;1175;-82
2023/11/01 01:57:11;;;;;;;;;;;;;;;12.27;73.76;99208.81;1088028;47;1486;-82
2023/11/01 01:58:26;;;;;;;;;;;;;;;;;;;;;
2023/11/01 01:59:40;;;;;;;;;;;;;;;12.28;73.27;99193.56;1088741;46;1364;-82
2023/11/01 02:00:58;;;;;;;;;;;;;;;12.24;73.24;99193.06;1088973;54;1073;-83
2023/11/01 02:02:01;;;;;;;;;;;;;;;12.27;73.30;99198.09;1088590;46;1483;-82
2023/11/01 02:03:02;;;;;;;;;;;;;;;12.24;73.16;99189.53;1088612;54;969;-82
2023/11/01 02:04:06;;;;;;;;;;;;;;;12.12;74.08;99191.78;1088805;54;1072;-82
2023/11/01 02:05:10;;;;;;;;;;;;;;;12.19;73.66;99184.72;1088333;54;1085;-81
2023/11/01 02:06:11;;;;;;;;;;;;;;;12.27;73.29;99190.06;1088526;54;1008;-82
2023/11/01 02:07:14;;;;;;;;;;;;;;;12.26;73.48;99188.38;1088651;54;1342;-82
2023/11/01 02:08:15;;;;;;;;;;;;;;;12.29;73.48;99190.69;1088329;47;962;-81
2023/11/01 02:09:18;;;;;;;;;;;;;;;12.31;73.27;99185.16;1088298;54;980;-82
2023/11/01 02:10:19;;;;;;;;;;;;;;;12.32;73.14;99187.66;1088271;47;950;-81
2023/11/01 02:11:22;;;;;;;;;;;;;;;12.28;73.00;99189.00;1088393;54;1866;-82
2023/11/01 02:12:23;;;;;;;;;;;;;;;12.33;73.44;99180.44;1088711;54;1056;-81
2023/11/01 02:13:26;;;;;;;;;;;;;;;12.24;73.23;99185.03;1088320;47;939;-81
2023/11/01 02:14:27;;;;;;;;;;;;;;;12.27;73.35;99184.69;1088393;54;1008;-81
2023/11/01 02:15:43;;;;;;;;;;;;;;;12.31;73.44;99177.94;1088408;54;864;-83
2023/11/01 02:22:58;;;;;;;;;;;;;;;12.35;73.03;99161.53;1088254;54;1125;-82
2023/11/01 02:24:03;;;;;;;;;;;;;;;12.39;73.12;99162.81;1089210;54;899;-82
2023/11/01 02:25:28;;;;;;;;;;;;;;;12.40;73.04;99159.13;1089092;54;974;-83
2023/11/01 02:26:32;;;;;;;;;;;;;;;12.44;72.80;99158.59;1089048;54;988;-81
2023/11/01 02:27:49;;;;;;;;;;;;;;;12.44;72.59;99160.44;1089078;54;1356;-84
2023/11/01 02:32:08;;;;;;;;;;;;;;;12.41;72.80;99167.00;1089186;47;751;-83
2023/11/01 02:33:09;;;;;;;;;;;;;;;12.37;72.76;99160.31;1089187;54;884;-83
2023/11/01 02:37:15;;;;;;;;;;;;;;;12.42;72.53;99157.13;1088703;47;1276;-82
2023/11/01 02:38:16;;;;;;;;;;;;;;;12.43;72.69;99161.47;1088545;54;1126;-81
2023/11/01 02:39:26;;;;;;;;;;;;;;;12.45;72.64;99151.41;1088427;54;1079;-80
2023/11/01 02:40:27;;;;;;;;;;;;;;;12.45;72.59;99154.91;1088302;47;1113;-81
2023/11/01 02:41:30;;;;;;;;;;;;;;;12.48;72.42;99151.03;1088217;54;1114;-80
2023/11/01 02:42:31;;;;;;;;;;;;;;;12.46;72.46;99161.13;1088221;54;1515;-81
2023/11/01 02:43:44;;;;;;;;;;;;;;;12.47;72.42;99160.06;1087811;54;1058;-81
2023/11/01 02:44:45;;;;;;;;;;;;;;;12.50;72.58;99154.38;1087951;54;1138;-81
2023/11/01 02:45:48;;;;;;;;;;;;;;;12.48;72.35;99151.03;1087739;47;1062;-80
2023/11/01 02:46:49;;;;;;;;;;;;;;;12.48;72.21;99146.50;1088120;54;1094;-81
2023/11/01 02:47:49;;;;;;;;;;;;;;;12.47;72.07;99152.88;1088232;47;1310;-80
2023/11/01 02:48:53;;;;;;;;;;;;;;;12.47;72.16;99152.88;1088129;54;957;-80
2023/11/01 02:49:53;;;;;;;;;;;;;;;12.45;72.32;99146.03;1087943;54;1117;-80
2023/11/01 02:50:56;;;;;;;;;;;;;;;12.48;72.36;99145.66;1088188;54;1856;-79
2023/11/01 02:51:57;;;;;;;;;;;;;;;12.50;72.17;99151.69;1088208;47;1078;-81
2023/11/01 02:53:00;;;;;;;;;;;;;;;12.45;72.02;99144.19;1088047;47;1016;-80
2023/11/01 02:54:01;;;;;;;;;;;;;;;12.40;72.39;99148.41;1088058;47;936;-80
2023/11/01 02:55:09;;;;;;;;;;;;;;;12.47;72.26;99149.34;1088041;47;960;-80
2023/11/01 02:56:10;;;;;;;;;;;;;;;12.37;72.44;99148.78;1088123;47;951;-80
2023/11/01 02:57:13;;;;;;;;;;;;;;;12.36;72.29;99147.94;1088060;54;1346;-80
2023/11/01 02:58:14;;;;;;;;;;;;;;;12.40;72.34;99151.09;1088252;47;956;-80
2023/11/01 02:59:18;;;;;;;;;;;;;;;12.38;72.50;99150.44;1087874;47;935;-79
2023/11/01 03:00:19;;;;;;;;;;;;;;;12.44;72.04;99149.72;1088229;47;1096;-81
2023/11/01 03:01:23;;;;;;;;;;;;;;;12.48;72.00;99149.19;1088148;47;1094;-81
2023/11/01 03:02:24;;;;;;;;;;;;;;;12.40;72.08;99146.59;1088138;54;1029;-80
2023/11/01 03:03:28;;;;;;;;;;;;;;;12.47;72.09;99149.34;1088181;47;991;-80
2023/11/01 03:04:29;;;;;;;;;;;;;;;12.46;71.54;99150.41;1088133;54;971;-80
2023/11/01 03:05:32;;;;;;;;;;;;;;;12.42;71.91;99147.22;1088178;54;968;-81
2023/11/01 03:06:33;;;;;;;;;;;;;;;12.42;72.07;99151.75;1088142;54;1015;-81
2023/11/01 03:07:33;;;;;;;;;;;;;;;12.45;71.88;99152.22;1088096;47;1256;-81
2023/11/01 03:08:37;;;;;;;;;;;;;;;12.47;71.74;99149.34;1088115;54;1185;-80
2023/11/01 03:09:37;;;;;;;;;;;;;;;12.44;71.96;99152.41;1087695;54;1122;-80
2023/11/01 03:10:41;;;;;;;;;;;;;;;12.50;71.90;99145.50;1087719;54;988;-80
2023/11/01 03:11:44;;;;;;;;;;;;;;;12.43;72.00;99148.06;1088049;46;1851;-80
2023/11/01 03:12:45;;;;;;;;;;;;;;;12.45;71.94;99146.03;1088064;47;990;-81
2023/11/01 03:13:49;;;;;;;;;;;;;;;12.44;71.73;99139.00;1088186;54;958;-80
2023/11/01 03:14:49;;;;;;;;;;;;;;;12.44;71.87;99141.69;1088277;54;972;-81
2023/11/01 03:15:52;;;;;;;;;;;;;;;12.44;71.68;99139.00;1088359;54;982;-81
2023/11/01 03:16:53;;;;;;;;;;;;;;;12.42;71.83;99141.03;1088292;47;952;-80
2023/11/01 03:17:57;;;;;;;;;;;;;;;12.45;71.91;99135.31;1088182;47;1235;-81
2023/11/01 03:18:57;;;;;;;;;;;;;;;12.44;71.75;99134.47;1088273;47;928;-81
2023/11/01 03:20:01;;;;;;;;;;;;;;;12.44;71.83;99126.44;1088142;46;947;-81
2023/11/01 03:21:03;;;;;;;;;;;;;;;12.46;71.61;99139.69;1088106;47;946;-81
2023/11/01 03:22:07;;;;;;;;;;;;;;;12.43;71.79;99131.97;1088217;47;949;-80
2023/11/01 03:23:08;;;;;;;;;;;;;;;12.36;71.78;99136.41;1087984;47;1163;-80
2023/11/01 03:24:12;;;;;;;;;;;;;;;12.43;72.08;99138.16;1088215;54;1032;-80
2023/11/01 03:25:13;;;;;;;;;;;;;;;12.42;71.67;99130.31;1088228;54;903;-81
2023/11/01 03:26:19;;;;;;;;;;;;;;;12.41;71.80;99142.03;1088049;54;1049;-80
2023/11/01 03:27:19;;;;;;;;;;;;;;;12.41;71.75;99137.53;1088168;54;1289;-80
2023/11/01 03:28:23;;;;;;;;;;;;;;;12.45;71.53;99138.00;1088091;54;1007;-80
2023/11/01 03:29:24;;;;;;;;;;;;;;;12.46;71.69;99134.31;1088174;54;1056;-81
2023/11/01 03:30:27;;;;;;;;;;;;;;;12.38;72.04;99134.34;1088209;54;980;-80
2023/11/01 03:31:28;;;;;;;;;;;;;;;12.43;71.37;99121.25;1088115;54;1852;-80
2023/11/01 03:32:31;;;;;;;;;;;;;;;12.43;71.55;99129.31;1088145;47;1041;-80
2023/11/01 03:33:32;;;;;;;;;;;;;;;12.38;71.68;99129.84;1088151;47;888;-81
2023/11/01 03:34:32;;;;;;;;;;;;;;;12.39;71.83;99126.16;1088169;54;1047;-81
2023/11/01 03:35:36;;;;;;;;;;;;;;;12.42;71.88;99124.94;1088108;47;1044;-81
2023/11/01 03:36:37;;;;;;;;;;;;;;;12.42;71.77;99130.31;1088163;47;1099;-81
2023/11/01 03:37:40;;;;;;;;;;;;;;;12.38;71.59;99131.66;1088224;54;1350;-81
2023/11/01 03:38:41;;;;;;;;;;;;;;;12.39;71.54;99131.50;1088178;47;971;-81
2023/11/01 03:39:44;;;;;;;;;;;;;;;12.44;71.65;99128.28;1088235;47;892;-81
2023/11/01 03:40:45;;;;;;;;;;;;;;;12.41;71.08;99124.13;1088239;54;1062;-81
2023/11/01 03:41:51;;;;;;;;;;;;;;;12.42;70.90;99130.31;1088178;47;1086;-81
2023/11/01 03:42:51;;;;;;;;;;;;;;;12.45;71.21;99125.41;1088154;47;954;-80
2023/11/01 03:43:54;;;;;;;;;;;;;;;12.42;70.98;99125.78;1088261;54;1142;-81
2023/11/01 03:44:55;;;;;;;;;;;;;;;12.41;70.81;99129.50;1088141;47;956;-80
2023/11/01 03:45:59;;;;;;;;;;;;;;;12.38;71.04;99119.13;1088261;54;1107;-80
2023/11/01 03:46:59;;;;;;;;;;;;;;;12.44;70.69;99122.94;1088139;47;1161;-80
2023/11/01 03:48:03;;;;;;;;;;;;;;;12.41;70.31;99124.13;1088142;47;1196;-81
2023/11/01 03:49:03;;;;;;;;;;;;;;;12.41;70.58;99113.41;1087886;54;993;-81
2023/11/01 03:50:07;;;;;;;;;;;;;;;12.47;70.38;99119.88;1088129;54;931;-80
2023/11/01 03:51:08;;;;;;;;;;;;;;;12.44;70.24;99112.22;1088054;54;1852;-81
2023/11/01 03:52:11;;;;;;;;;;;;;;;12.38;70.22;99118.25;1088171;47;914;-82
2023/11/01 03:53:13;;;;;;;;;;;;;;;12.42;70.50;99116.91;1088294;54;1004;-82
2023/11/01 03:54:16;;;;;;;;;;;;;;;12.43;70.50;99115.91;1088231;54;892;-81
2023/11/01 03:55:16;;;;;;;;;;;;;;;12.45;70.09;99116.56;1088118;54;1011;-81
2023/11/01 03:56:20;;;;;;;;;;;;;;;12.45;70.22;99109.34;1088133;47;985;-81
2023/11/01 03:57:23;;;;;;;;;;;;;;;12.49;70.42;99115.16;1088095;54;1260;-81
2023/11/01 03:58:27;;;;;;;;;;;;;;;12.50;69.91;99111.47;1088145;47;966;-82
2023/11/01 03:59:27;;;;;;;;;;;;;;;12.50;70.17;99111.47;1088068;54;938;-80
2023/11/01 04:00:31;;;;;;;;;;;;;;;12.43;70.20;99110.53;1088166;47;1160;-82
2023/11/01 04:01:31;;;;;;;;;;;;;;;12.46;70.10;99108.31;1088204;47;947;-82
2023/11/01 04:02:34;;;;;;;;;;;;;;;12.47;70.30;99111.81;1088352;54;935;-82
2023/11/01 04:03:35;;;;;;;;;;;;;;;12.48;70.19;99109.00;1088345;54;1185;-83
2023/11/01 04:04:38;;;;;;;;;;;;;;;12.47;69.80;99111.81;1088296;54;1007;-82
2023/11/01 04:05:39;;;;;;;;;;;;;;;12.50;69.78;99107.97;1088369;54;994;-82
2023/11/01 04:06:42;;;;;;;;;;;;;;;12.51;70.14;99105.09;1088312;54;1027;-82
2023/11/01 04:07:43;;;;;;;;;;;;;;;12.50;70.17;99107.97;1088193;47;1161;-81
2023/11/01 04:08:47;;;;;;;;;;;;;;;12.48;69.93;99100.09;1088195;47;1024;-83
2023/11/01 04:09:48;;;;;;;;;;;;;;;12.43;69.80;99105.19;1088225;54;946;-82
2023/11/01 04:10:51;;;;;;;;;;;;;;;12.45;69.72;99108.53;1088226;47;1003;-82
2023/11/01 04:11:52;;;;;;;;;;;;;;;12.47;69.71;99103.78;1088143;54;1842;-81
2023/11/01 04:12:58;;;;;;;;;;;;;;;12.47;69.78;99106.47;1088148;47;971;-82
2023/11/01 04:13:59;;;;;;;;;;;;;;;12.48;69.51;99106.31;1088137;54;955;-81
2023/11/01 04:15:05;;;;;;;;;;;;;;;12.47;69.54;99118.03;1088287;54;1015;-81
2023/11/01 04:16:07;;;;;;;;;;;;;;;12.41;69.76;99116.09;1088237;54;994;-81
2023/11/01 04:17:10;;;;;;;;;;;;;;;12.38;69.76;99108.41;1088102;54;978;-79
2023/11/01 04:18:11;;;;;;;;;;;;;;;12.38;70.04;99100.34;1088186;54;994;-82
2023/11/01 04:19:11;;;;;;;;;;;;;;;12.38;69.82;99103.03;1088054;47;856;-81
2023/11/01 04:20:14;;;;;;;;;;;;;;;12.33;70.04;99100.91;1088001;47;967;-81
2023/11/01 04:21:15;;;;;;;;;;;;;;;12.27;70.24;99106.97;1088156;54;956;-81
2023/11/01 04:22:18;;;;;;;;;;;;;;;12.22;70.54;99103.16;1088040;47;1094;-81
2023/11/01 04:23:19;;;;;;;;;;;;;;;12.17;70.37;99107.19;1087861;54;1157;-81
2023/11/01 04:24:23;;;;;;;;;;;;;;;12.18;70.24;99102.69;1088028;47;995;-82
2023/11/01 04:25:24;;;;;;;;;;;;;;;12.18;70.49;99102.69;1087961;54;1181;-81
2023/11/01 04:26:27;;;;;;;;;;;;;;;12.19;70.55;99101.66;1088002;47;1153;-80
2023/11/01 04:27:28;;;;;;;;;;;;;;;12.08;70.99;99100.22;1088001;54;1400;-81
2023/11/01 04:28:34;;;;;;;;;;;;;;;12.08;70.82;99094.88;1088098;54;939;-81
2023/11/01 04:29:35;;;;;;;;;;;;;;;12.14;70.49;99096.00;1088108;54;1015;-79
2023/11/01 04:30:40;;;;;;;;;;;;;;;12.10;70.44;99090.19;1088106;54;974;-82
2023/11/01 04:31:41;;;;;;;;;;;;;;;12.12;70.62;99098.88;1088092;47;1860;-82
2023/11/01 04:35:11;;;;;;;;;;;;;;;11.98;71.00;99097.78;1088118;47;1030;-81
2023/11/01 04:36:12;;;;;;;;;;;;;;;12.03;70.75;99089.22;1087996;54;1142;-81
2023/11/01 04:37:15;;;;;;;;;;;;;;;11.98;70.99;99092.44;1088038;54;1330;-81
2023/11/01 04:38:18;;;;;;;;;;;;;;;11.99;71.14;99087.91;1088049;47;968;-81
2023/11/01 04:39:21;;;;;;;;;;;;;;;11.94;70.94;99090.25;1088053;54;1392;-80
2023/11/01 04:40:22;;;;;;;;;;;;;;;11.96;71.10;99091.75;1087942;47;958;-80
2023/11/01 04:41:23;;;;;;;;;;;;;;;11.90;70.98;99089.78;1087983;47;972;-81
2023/11/01 04:42:27;;;;;;;;;;;;;;;11.90;70.96;99088.94;1087979;47;935;-82
2023/11/01 04:43:28;;;;;;;;;;;;;;;11.93;71.00;99078.69;1088043;47;981;-80
2023/11/01 04:44:34;;;;;;;;;;;;;;;11.92;70.91;99082.38;1088036;47;1060;-81
2023/11/01 04:45:34;;;;;;;;;;;;;;;11.95;70.91;99075.88;1088129;54;1010;-81
2023/11/01 04:46:38;;;;;;;;;;;;;;;11.99;71.17;99077.19;1088098;54;1030;-82
2023/11/01 04:47:39;;;;;;;;;;;;;;;12.00;70.61;99073.50;1087980;47;1342;-81
2023/11/01 04:48:42;;;;;;;;;;;;;;;11.98;70.92;99079.03;1088010;47;973;-82
2023/11/01 04:49:43;;;;;;;;;;;;;;;12.04;70.66;99073.97;1088064;54;1003;-81
2023/11/01 04:50:48;;;;;;;;;;;;;;;12.04;70.57;99073.97;1088094;54;1007;-81
2023/11/01 04:51:48;;;;;;;;;;;;;;;12.01;70.81;99081.34;1088024;47;1860;-82
2023/11/01 04:52:52;;;;;;;;;;;;;;;12.02;70.41;99074.16;1087922;47;1032;-80
2023/11/01 04:53:52;;;;;;;;;;;;;;;12.05;70.59;99070.28;1088060;54;981;-81
2023/11/01 04:54:55;;;;;;;;;;;;;;;12.05;70.30;99075.66;1087911;47;976;-81
2023/11/01 04:55:56;;;;;;;;;;;;;;;12.06;70.36;99074.63;1087838;54;967;-80
2023/11/01 04:56:59;;;;;;;;;;;;;;;12.03;70.58;99083.88;1087814;54;1091;-80
2023/11/01 04:58:00;;;;;;;;;;;;;;;12.04;70.58;99080.19;1088000;54;1356;-81
2023/11/01 04:59:03;;;;;;;;;;;;;;;12.04;70.09;99077.50;1087746;47;901;-81
2023/11/01 05:00:08;;;;;;;;;;;;;;;12.00;70.42;99068.97;1087937;47;876;-81
2023/11/01 05:01:13;;;;;;;;;;;;;;;11.98;70.57;99075.53;1088142;47;944;-81
2023/11/01 05:02:13;;;;;;;;;;;;;;;11.96;70.49;99077.50;1088423;54;945;-81
2023/11/01 05:03:18;;;;;;;;;;;;;;;11.92;70.53;99068.16;1088380;47;935;-81
2023/11/01 05:04:18;;;;;;;;;;;;;;;11.96;70.51;99064.97;1088408;54;1002;-81
2023/11/01 05:05:21;;;;;;;;;;;;;;;11.90;70.86;99068.34;1088463;54;942;-81
2023/11/01 05:06:22;;;;;;;;;;;;;;;11.90;70.87;99064.84;1088456;54;1163;-81
2023/11/01 05:07:25;;;;;;;;;;;;;;;11.90;70.64;99060.31;1088399;54;1473;-82
2023/11/01 05:08:26;;;;;;;;;;;;;;;11.87;71.05;99066.03;1088416;54;1009;-81
2023/11/01 05:09:29;;;;;;;;;;;;;;;11.84;71.12;99063.69;1088354;47;981;-81
2023/11/01 05:10:30;;;;;;;;;;;;;;;11.87;70.99;99060.66;1088392;54;981;-81
2023/11/01 05:11:33;;;;;;;;;;;;;;;11.86;70.95;99061.69;1088373;54;964;-81
2023/11/01 05:12:34;;;;;;;;;;;;;;;11.78;71.19;99059.88;1088194;47;1864;-82
2023/11/01 05:13:37;;;;;;;;;;;;;;;11.74;71.56;99060.41;1088336;47;908;-82
2023/11/01 05:14:39;;;;;;;;;;;;;;;11.74;71.41;99060.41;1088452;54;1011;-81
2023/11/01 05:15:45;;;;;;;;;;;;;;;11.73;71.18;99058.72;1088287;47;923;-82
2023/11/01 05:16:45;;;;;;;;;;;;;;;11.73;71.16;99056.91;1088357;47;980;-82
2023/11/01 05:17:49;;;;;;;;;;;;;;;11.70;71.55;99062.59;1088226;54;1233;-82
2023/11/01 05:18:49;;;;;;;;;;;;;;;11.70;71.54;99062.59;1088438;54;1007;-82
2023/11/01 05:19:53;;;;;;;;;;;;;;;11.67;71.53;99061.13;1088359;47;968;-81
2023/11/01 05:20:53;;;;;;;;;;;;;;;11.66;71.33;99055.94;1088719;54;855;-80
2023/11/01 05:21:57;;;;;;;;;;;;;;;11.60;71.80;99053.97;1088492;46;928;-81
2023/11/01 05:22:57;;;;;;;;;;;;;;;11.65;71.76;99059.63;1088361;46;935;-81
2023/11/01 05:24:00;;;;;;;;;;;;;;;11.58;71.89;99058.66;1088027;54;1154;-81
2023/11/01 05:25:13;;;;;;;;;;;;;;;11.58;71.86;99054.16;1088463;54;991;-81
2023/11/01 05:26:17;;;;;;;;;;;;;;;11.57;71.78;99052.47;1088793;54;919;-82
2023/11/01 05:27:19;;;;;;;;;;;;;;;11.54;71.65;99048.31;1088240;47;1377;-81
2023/11/01 05:28:22;;;;;;;;;;;;;;;11.57;71.33;99052.47;1088363;54;952;-80
2023/11/01 05:29:23;;;;;;;;;;;;;;;11.59;71.68;99045.09;1088556;54;1030;-80
2023/11/01 05:30:26;;;;;;;;;;;;;;;11.63;71.63;99046.41;1088541;54;1084;-80
2023/11/01 05:31:29;;;;;;;;;;;;;;;11.57;71.45;99041.78;1088391;47;1029;-81
2023/11/01 05:32:33;;;;;;;;;;;;;;;11.59;71.49;99039.75;1088382;54;1861;-81
2023/11/01 05:33:34;;;;;;;;;;;;;;;11.54;71.53;99042.97;1088448;47;976;-82
2023/11/01 05:34:37;;;;;;;;;;;;;;;11.52;71.44;99044.97;1088485;54;889;-81
2023/11/01 05:35:37;;;;;;;;;;;;;;;11.50;71.30;99046.16;1088542;54;1081;-82
2023/11/01 05:36:41;;;;;;;;;;;;;;;11.52;71.65;99042.28;1088519;54;945;-81
2023/11/01 05:37:41;;;;;;;;;;;;;;;11.46;71.90;99044.84;1088498;54;1447;-81
2023/11/01 05:38:45;;;;;;;;;;;;;;;11.42;71.62;99041.69;1088519;54;865;-83
2023/11/01 05:39:45;;;;;;;;;;;;;;;11.43;71.72;99050.56;1088521;54;985;-80
2023/11/01 05:40:49;;;;;;;;;;;;;;;11.43;71.74;99046.03;1088591;54;976;-82
2023/11/01 05:41:51;;;;;;;;;;;;;;;11.41;71.92;99047.22;1088563;47;1079;-82
2023/11/01 05:42:54;;;;;;;;;;;;;;;11.41;71.92;99048.03;1088485;47;963;-82
2023/11/01 05:43:55;;;;;;;;;;;;;;;11.38;71.59;99049.22;1088437;47;939;-82
2023/11/01 05:44:56;;;;;;;;;;;;;;;11.34;71.85;99049.75;1088452;54;995;-82
2023/11/01 05:46:00;;;;;;;;;;;;;;;11.37;71.82;99044.06;1088332;47;955;-82
2023/11/01 05:47:03;;;;;;;;;;;;;;;11.32;71.90;99043.72;1088291;46;882;-81
2023/11/01 05:48:07;;;;;;;;;;;;;;;11.21;72.11;99050.31;1088320;54;1278;-82
2023/11/01 05:49:08;;;;;;;;;;;;;;;11.18;72.25;99042.63;1088431;46;926;-82
2023/11/01 05:50:12;;;;;;;;;;;;;;;11.18;72.07;99047.97;1088381;54;864;-82
2023/11/01 05:51:12;;;;;;;;;;;;;;;11.18;72.29;99043.47;1088377;54;958;-82
2023/11/01 05:52:16;;;;;;;;;;;;;;;11.25;71.87;99048.94;1088299;54;1858;-81
2023/11/01 05:53:16;;;;;;;;;;;;;;;11.14;72.17;99046.66;1088369;54;934;-82
2023/11/01 05:54:20;;;;;;;;;;;;;;;11.23;72.08;99045.63;1088241;54;979;-81
2023/11/01 05:55:21;;;;;;;;;;;;;;;11.18;72.25;99043.47;1088247;46;938;-82
2023/11/01 05:56:26;;;;;;;;;;;;;;;11.24;72.12;99041.94;1088219;54;896;-81
2023/11/01 05:57:27;;;;;;;;;;;;;;;11.19;71.87;99045.09;1088324;54;1387;-81